Accueil
METAR-TAF:

METAR-TAF

Aéroports :

Aéroport de Limoges-Bellegarde

Limoges, France

latitude: 45-52N, longitude: 001-11E, altitude: 396 m

Observation

Le bulletin a été fait il y a 36 minutes, à 18:30 UTC
Vent 6 kt de sud-est
Température 11°C
Humidité 76%
Pression 1017 hPa
Visibilité 10 km ou plus
pas de nuages en-dessous de 1500 mètres et pas de cumulonimbus.

METAR: LFBL 261830Z AUTO 13006KT CAVOK 11/07 Q1017 NOSIG

Heure: 20:06 (19:06 UTC)

Prévision

Le bulletin a été fait il y a 2 heures et 6 minutes, à 17:00 UTC
Prévision valable du 26 à 18 UTC au 27 à 18 UTC
Vent 7 kt de sud-est
Visibilité 10 km ou plus
Nuages épars à une hauteur de 3500 ft
Evoluant progressivement
du 27 à 16 UTC au 27 à 18 UTC
Visibilité 10 km ou plus
pas de nuages en-dessous de 1500 mètres et pas de cumulonimbus.

TAF: LFBL 261700Z 2618/2718 13007KT 9999 SCT035 BECMG 2716/2718 CAVOK

Observations et prévisions météorologiques de plus de 4000 aéroports (messages METAR et TAF).

Les stations disponibles sont représentées par des disques jaunes et rouges sur la carte.

Passer la souris dessus pour voir le nom de la station.

Cliquer dessus pour voir les observations et prévisions météorologiques.

Pour changer de carte: cliquez sur les boutons verts avec une croix noire pour zoomer, sur le bouton vert avec un tiret pour effectuer un zoom arrière, ou sur les flèches vertes pour les cartes adjacentes.


METAR-TAF: